sensor_id;sensor_type;location;lat;lon;timestamp;pressure;altitude;pressure_sealevel;temperature;humidity
62420;BME280;48460;51.616;5.426;2022-07-23T00:01:17;101811.66;;;17.14;85.45
62420;BME280;48460;51.616;5.426;2022-07-23T00:03:44;101808.44;;;17.08;85.68
62420;BME280;48460;51.616;5.426;2022-07-23T00:06:09;101811.94;;;16.95;86.73
62420;BME280;48460;51.616;5.426;2022-07-23T00:08:35;101810.72;;;16.86;87.38
62420;BME280;48460;51.616;5.426;2022-07-23T00:11:00;101814.72;;;16.79;88.06
62420;BME280;48460;51.616;5.426;2022-07-23T00:13:26;101824.09;;;16.70;88.24
62420;BME280;48460;51.616;5.426;2022-07-23T00:15:51;101821.63;;;16.67;88.91
62420;BME280;48460;51.616;5.426;2022-07-23T00:18:17;101814.50;;;16.68;89.21
62420;BME280;48460;51.616;5.426;2022-07-23T00:20:42;101818.19;;;16.65;89.48
62420;BME280;48460;51.616;5.426;2022-07-23T00:23:08;101811.66;;;16.56;89.48
62420;BME280;48460;51.616;5.426;2022-07-23T00:25:35;101810.06;;;16.54;90.00
62420;BME280;48460;51.616;5.426;2022-07-23T00:28:03;101811.66;;;16.42;90.29
62420;BME280;48460;51.616;5.426;2022-07-23T00:30:29;101815.75;;;16.33;90.41
62420;BME280;48460;51.616;5.426;2022-07-23T00:32:59;101818.06;;;16.24;90.87
62420;BME280;48460;51.616;5.426;2022-07-23T00:35:27;101809.63;;;16.17;91.08
62420;BME280;48460;51.616;5.426;2022-07-23T00:37:54;101807.16;;;16.14;91.01
62420;BME280;48460;51.616;5.426;2022-07-23T00:40:19;101810.28;;;16.06;92.12
62420;BME280;48460;51.616;5.426;2022-07-23T00:42:45;101812.44;;;16.00;92.35
62420;BME280;48460;51.616;5.426;2022-07-23T00:45:11;101811.94;;;15.93;93.03
62420;BME280;48460;51.616;5.426;2022-07-23T00:47:36;101811.16;;;15.91;92.99
62420;BME280;48460;51.616;5.426;2022-07-23T00:50:04;101809.06;;;15.82;93.41
62420;BME280;48460;51.616;5.426;2022-07-23T00:52:31;101812.00;;;15.77;93.60
62420;BME280;48460;51.616;5.426;2022-07-23T00:54:57;101820.38;;;15.69;93.93
62420;BME280;48460;51.616;5.426;2022-07-23T00:57:22;101807.44;;;15.63;94.67
62420;BME280;48460;51.616;5.426;2022-07-23T00:59:48;101804.59;;;15.68;94.19
62420;BME280;48460;51.616;5.426;2022-07-23T01:02:13;101804.81;;;15.63;94.88
62420;BME280;48460;51.616;5.426;2022-07-23T01:04:39;101805.09;;;15.59;94.33
62420;BME280;48460;51.616;5.426;2022-07-23T01:07:04;101800.28;;;15.49;95.63
62420;BME280;48460;51.616;5.426;2022-07-23T01:09:31;101804.06;;;15.45;95.50
62420;BME280;48460;51.616;5.426;2022-07-23T01:11:57;101797.25;;;15.41;95.80
62420;BME280;48460;51.616;5.426;2022-07-23T01:14:22;101793.91;;;15.38;95.67
62420;BME280;48460;51.616;5.426;2022-07-23T01:16:48;101799.28;;;15.36;96.10
62420;BME280;48460;51.616;5.426;2022-07-23T01:19:16;101793.31;;;15.33;96.39
62420;BME280;48460;51.616;5.426;2022-07-23T01:21:44;101801.50;;;15.28;96.49
62420;BME280;48460;51.616;5.426;2022-07-23T01:24:11;101796.56;;;15.22;96.77
62420;BME280;48460;51.616;5.426;2022-07-23T01:26:38;101797.56;;;15.19;97.09
62420;BME280;48460;51.616;5.426;2022-07-23T01:29:04;101792.38;;;15.18;97.06
62420;BME280;48460;51.616;5.426;2022-07-23T01:31:30;101790.59;;;15.18;97.31
62420;BME280;48460;51.616;5.426;2022-07-23T01:33:56;101797.91;;;15.13;96.66
62420;BME280;48460;51.616;5.426;2022-07-23T01:36:22;101786.06;;;15.20;96.46
62420;BME280;48460;51.616;5.426;2022-07-23T01:38:47;101789.38;;;15.24;97.05
62420;BME280;48460;51.616;5.426;2022-07-23T01:41:13;101785.88;;;15.23;96.98
62420;BME280;48460;51.616;5.426;2022-07-23T01:43:38;101794.69;;;15.24;96.61
62420;BME280;48460;51.616;5.426;2022-07-23T01:46:04;101793.91;;;15.22;96.53
62420;BME280;48460;51.616;5.426;2022-07-23T01:48:29;101789.56;;;15.21;96.86
62420;BME280;48460;51.616;5.426;2022-07-23T01:50:55;101792.28;;;15.19;97.18
62420;BME280;48460;51.616;5.426;2022-07-23T01:53:20;101785.63;;;15.12;96.55
62420;BME280;48460;51.616;5.426;2022-07-23T01:55:46;101787.94;;;15.02;96.22
62420;BME280;48460;51.616;5.426;2022-07-23T01:58:11;101787.56;;;14.93;96.51
62420;BME280;48460;51.616;5.426;2022-07-23T02:00:37;101791.41;;;14.87;96.84
62420;BME280;48460;51.616;5.426;2022-07-23T02:03:03;101795.84;;;14.87;97.58
62420;BME280;48460;51.616;5.426;2022-07-23T02:05:29;101787.34;;;14.81;98.48
62420;BME280;48460;51.616;5.426;2022-07-23T02:07:55;101787.66;;;14.75;97.83
62420;BME280;48460;51.616;5.426;2022-07-23T02:10:21;101777.06;;;14.75;97.79
62420;BME280;48460;51.616;5.426;2022-07-23T02:12:47;101781.66;;;14.72;98.36
62420;BME280;48460;51.616;5.426;2022-07-23T02:15:13;101776.19;;;14.75;98.12
62420;BME280;48460;51.616;5.426;2022-07-23T02:17:39;101776.47;;;14.70;97.83
62420;BME280;48460;51.616;5.426;2022-07-23T02:20:05;101774.72;;;14.69;98.46
62420;BME280;48460;51.616;5.426;2022-07-23T02:22:32;101782.31;;;14.59;98.78
62420;BME280;48460;51.616;5.426;2022-07-23T02:24:57;101782.00;;;14.48;98.05
62420;BME280;48460;51.616;5.426;2022-07-23T02:27:23;101783.16;;;14.27;99.19
62420;BME280;48460;51.616;5.426;2022-07-23T02:29:49;101787.28;;;14.15;99.53
62420;BME280;48460;51.616;5.426;2022-07-23T02:32:14;101788.44;;;14.09;99.95
62420;BME280;48460;51.616;5.426;2022-07-23T02:34:40;101786.91;;;14.05;100.00
62420;BME280;48460;51.616;5.426;2022-07-23T02:37:05;101787.91;;;14.03;100.00
62420;BME280;48460;51.616;5.426;2022-07-23T02:39:31;101788.72;;;14.05;100.00
62420;BME280;48460;51.616;5.426;2022-07-23T02:41:56;101785.22;;;14.04;100.00
62420;BME280;48460;51.616;5.426;2022-07-23T02:44:21;101792.25;;;14.04;100.00
62420;BME280;48460;51.616;5.426;2022-07-23T02:46:47;101786.38;;;13.99;100.00
62420;BME280;48460;51.616;5.426;2022-07-23T02:49:12;101791.72;;;13.97;100.00
62420;BME280;48460;51.616;5.426;2022-07-23T02:51:37;101788.34;;;13.95;100.00
62420;BME280;48460;51.616;5.426;2022-07-23T02:54:03;101800.78;;;13.93;100.00
62420;BME280;48460;51.616;5.426;2022-07-23T02:56:28;101798.28;;;13.90;100.00
62420;BME280;48460;51.616;5.426;2022-07-23T02:58:54;101797.28;;;13.93;100.00
62420;BME280;48460;51.616;5.426;2022-07-23T03:01:19;101803.47;;;13.91;100.00
62420;BME280;48460;51.616;5.426;2022-07-23T03:03:44;101798.19;;;13.91;100.00
62420;BME280;48460;51.616;5.426;2022-07-23T03:06:10;101801.84;;;13.89;100.00
62420;BME280;48460;51.616;5.426;2022-07-23T03:08:35;101801.44;;;13.79;100.00
62420;BME280;48460;51.616;5.426;2022-07-23T03:11:01;101798.81;;;13.79;100.00
62420;BME280;48460;51.616;5.426;2022-07-23T03:13:26;101803.41;;;13.76;100.00
62420;BME280;48460;51.616;5.426;2022-07-23T03:15:51;101801.84;;;13.72;100.00
62420;BME280;48460;51.616;5.426;2022-07-23T03:18:17;101808.34;;;13.64;100.00
62420;BME280;48460;51.616;5.426;2022-07-23T03:20:42;101805.97;;;13.60;100.00
62420;BME280;48460;51.616;5.426;2022-07-23T03:23:08;101807.09;;;13.54;100.00
62420;BME280;48460;51.616;5.426;2022-07-23T03:25:33;101808.81;;;13.55;100.00
62420;BME280;48460;51.616;5.426;2022-07-23T03:27:58;101805.00;;;13.61;100.00
62420;BME280;48460;51.616;5.426;2022-07-23T03:30:24;101816.28;;;13.64;100.00
62420;BME280;48460;51.616;5.426;2022-07-23T03:32:49;101803.00;;;13.66;100.00
62420;BME280;48460;51.616;5.426;2022-07-23T03:35:15;101807.34;;;13.67;100.00
62420;BME280;48460;51.616;5.426;2022-07-23T03:37:40;101812.56;;;13.68;100.00
62420;BME280;48460;51.616;5.426;2022-07-23T03:40:06;101812.56;;;13.68;100.00
62420;BME280;48460;51.616;5.426;2022-07-23T03:42:32;101808.34;;;13.64;100.00
62420;BME280;48460;51.616;5.426;2022-07-23T03:44:57;101808.50;;;13.61;100.00
62420;BME280;48460;51.616;5.426;2022-07-23T03:47:23;101813.94;;;13.58;100.00
62420;BME280;48460;51.616;5.426;2022-07-23T03:49:48;101807.00;;;13.56;100.00
62420;BME280;48460;51.616;5.426;2022-07-23T03:52:14;101803.19;;;13.44;100.00
62420;BME280;48460;51.616;5.426;2022-07-23T03:54:39;101804.13;;;13.43;100.00
62420;BME280;48460;51.616;5.426;2022-07-23T03:57:05;101803.34;;;13.41;100.00
62420;BME280;48460;51.616;5.426;2022-07-23T03:59:31;101803.28;;;13.42;100.00
62420;BME280;48460;51.616;5.426;2022-07-23T04:01:56;101800.53;;;13.44;100.00
62420;BME280;48460;51.616;5.426;2022-07-23T04:04:23;101807.63;;;13.43;100.00
62420;BME280;48460;51.616;5.426;2022-07-23T04:06:49;101812.91;;;13.43;100.00
62420;BME280;48460;51.616;5.426;2022-07-23T04:09:15;101814.06;;;13.38;100.00
62420;BME280;48460;51.616;5.426;2022-07-23T04:11:40;101825.06;;;13.29;100.00
62420;BME280;48460;51.616;5.426;2022-07-23T04:14:12;101827.41;;;13.16;100.00
62420;BME280;48460;51.616;5.426;2022-07-23T04:16:38;101821.47;;;13.11;100.00
62420;BME280;48460;51.616;5.426;2022-07-23T04:19:03;101816.41;;;13.06;100.00
62420;BME280;48460;51.616;5.426;2022-07-23T04:21:29;101825.34;;;13.04;100.00
62420;BME280;48460;51.616;5.426;2022-07-23T04:23:55;101827.84;;;13.07;100.00
62420;BME280;48460;51.616;5.426;2022-07-23T04:26:21;101826.84;;;13.09;100.00
62420;BME280;48460;51.616;5.426;2022-07-23T04:28:46;101826.06;;;13.07;100.00
62420;BME280;48460;51.616;5.426;2022-07-23T04:31:12;101827.00;;;13.06;100.00
62420;BME280;48460;51.616;5.426;2022-07-23T04:33:39;101833.78;;;13.12;100.00
62420;BME280;48460;51.616;5.426;2022-07-23T04:36:05;101828.25;;;13.16;100.00
62420;BME280;48460;51.616;5.426;2022-07-23T04:38:30;101828.34;;;13.15;100.00
62420;BME280;48460;51.616;5.426;2022-07-23T04:40:57;101843.41;;;13.13;100.00
62420;BME280;48460;51.616;5.426;2022-07-23T04:43:23;101843.31;;;13.14;100.00
62420;BME280;48460;51.616;5.426;2022-07-23T04:45:49;101835.47;;;13.13;100.00
62420;BME280;48460;51.616;5.426;2022-07-23T04:48:15;101840.81;;;13.11;100.00
62420;BME280;48460;51.616;5.426;2022-07-23T04:50:40;101850.75;;;13.06;100.00
62420;BME280;48460;51.616;5.426;2022-07-23T04:53:05;101847.19;;;13.07;100.00
62420;BME280;48460;51.616;5.426;2022-07-23T04:55:31;101853.31;;;13.08;100.00
62420;BME280;48460;51.616;5.426;2022-07-23T04:57:56;101852.25;;;13.12;100.00
62420;BME280;48460;51.616;5.426;2022-07-23T05:00:22;101856.22;;;13.20;100.00
62420;BME280;48460;51.616;5.426;2022-07-23T05:02:47;101855.16;;;13.25;100.00
62420;BME280;48460;51.616;5.426;2022-07-23T05:05:13;101849.63;;;13.31;100.00
62420;BME280;48460;51.616;5.426;2022-07-23T05:07:38;101851.13;;;13.36;100.00
62420;BME280;48460;51.616;5.426;2022-07-23T05:10:04;101850.19;;;13.37;100.00
62420;BME280;48460;51.616;5.426;2022-07-23T05:12:29;101850.34;;;13.34;100.00
62420;BME280;48460;51.616;5.426;2022-07-23T05:14:55;101852.78;;;13.39;100.00
62420;BME280;48460;51.616;5.426;2022-07-23T05:17:20;101858.47;;;13.49;100.00
62420;BME280;48460;51.616;5.426;2022-07-23T05:19:46;101861.47;;;13.60;100.00
62420;BME280;48460;51.616;5.426;2022-07-23T05:22:11;101864.94;;;13.60;100.00
62420;BME280;48460;51.616;5.426;2022-07-23T05:24:37;101867.22;;;13.68;100.00
62420;BME280;48460;51.616;5.426;2022-07-23T05:27:02;101867.34;;;13.84;100.00
62420;BME280;48460;51.616;5.426;2022-07-23T05:29:27;101868.28;;;14.00;100.00
62420;BME280;48460;51.616;5.426;2022-07-23T05:31:53;101869.53;;;14.10;100.00
62420;BME280;48460;51.616;5.426;2022-07-23T05:34:18;101872.63;;;14.19;100.00
62420;BME280;48460;51.616;5.426;2022-07-23T05:36:44;101866.28;;;14.23;100.00
62420;BME280;48460;51.616;5.426;2022-07-23T05:39:09;101871.47;;;14.42;100.00
62420;BME280;48460;51.616;5.426;2022-07-23T05:41:34;101870.47;;;14.62;100.00
62420;BME280;48460;51.616;5.426;2022-07-23T05:44:00;101875.63;;;14.80;100.00
62420;BME280;48460;51.616;5.426;2022-07-23T05:46:25;101879.78;;;15.02;100.00
62420;BME280;48460;51.616;5.426;2022-07-23T05:48:51;101868.88;;;15.24;100.00
62420;BME280;48460;51.616;5.426;2022-07-23T05:51:21;101875.81;;;15.42;100.00
62420;BME280;48460;51.616;5.426;2022-07-23T05:53:46;101879.16;;;15.62;100.00
62420;BME280;48460;51.616;5.426;2022-07-23T05:56:12;101877.09;;;15.83;100.00
62420;BME280;48460;51.616;5.426;2022-07-23T05:58:38;101877.66;;;16.04;100.00
62420;BME280;48460;51.616;5.426;2022-07-23T06:01:03;101883.69;;;16.22;98.02
62420;BME280;48460;51.616;5.426;2022-07-23T06:03:29;101890.72;;;16.37;97.72
62420;BME280;48460;51.616;5.426;2022-07-23T06:05:54;101892.53;;;16.51;96.02
62420;BME280;48460;51.616;5.426;2022-07-23T06:08:19;101892.56;;;16.65;95.29
62420;BME280;48460;51.616;5.426;2022-07-23T06:10:45;101886.88;;;16.71;94.01
62420;BME280;48460;51.616;5.426;2022-07-23T06:13:10;101893.47;;;16.80;94.54
62420;BME280;48460;51.616;5.426;2022-07-23T06:15:36;101894.25;;;16.96;94.31
62420;BME280;48460;51.616;5.426;2022-07-23T06:18:01;101891.38;;;17.14;92.67
62420;BME280;48460;51.616;5.426;2022-07-23T06:20:27;101894.84;;;17.43;90.39
62420;BME280;48460;51.616;5.426;2022-07-23T06:22:52;101891.75;;;17.63;88.51
62420;BME280;48460;51.616;5.426;2022-07-23T06:25:18;101901.41;;;17.79;87.42
62420;BME280;48460;51.616;5.426;2022-07-23T06:27:46;101898.50;;;17.96;85.70
62420;BME280;48460;51.616;5.426;2022-07-23T06:30:12;101893.47;;;18.18;83.49
62420;BME280;48460;51.616;5.426;2022-07-23T06:32:37;101901.06;;;18.37;82.38
62420;BME280;48460;51.616;5.426;2022-07-23T06:35:03;101904.19;;;18.57;82.46
62420;BME280;48460;51.616;5.426;2022-07-23T06:37:28;101904.63;;;18.76;81.43
62420;BME280;48460;51.616;5.426;2022-07-23T06:39:54;101900.91;;;18.79;80.36
62420;BME280;48460;51.616;5.426;2022-07-23T06:42:19;101905.16;;;19.07;80.25
62420;BME280;48460;51.616;5.426;2022-07-23T06:44:44;101902.44;;;19.32;78.49
62420;BME280;48460;51.616;5.426;2022-07-23T06:47:10;101906.78;;;19.46;76.53
62420;BME280;48460;51.616;5.426;2022-07-23T06:49:36;101896.41;;;19.54;76.05
62420;BME280;48460;51.616;5.426;2022-07-23T06:52:03;101894.56;;;19.68;74.96
62420;BME280;48460;51.616;5.426;2022-07-23T06:54:29;101895.06;;;19.97;74.92
62420;BME280;48460;51.616;5.426;2022-07-23T06:56:57;101897.41;;;20.13;72.58
62420;BME280;48460;51.616;5.426;2022-07-23T06:59:22;101897.59;;;20.34;71.19
62420;BME280;48460;51.616;5.426;2022-07-23T07:01:47;101905.91;;;20.42;70.24
62420;BME280;48460;51.616;5.426;2022-07-23T07:04:13;101906.03;;;20.52;69.76
62420;BME280;48460;51.616;5.426;2022-07-23T07:06:39;101897.34;;;20.61;69.26
62420;BME280;48460;51.616;5.426;2022-07-23T07:09:04;101901.00;;;20.71;67.48
62420;BME280;48460;51.616;5.426;2022-07-23T07:11:29;101909.50;;;20.65;66.36
62420;BME280;48460;51.616;5.426;2022-07-23T07:13:55;101905.28;;;20.74;66.58
62420;BME280;48460;51.616;5.426;2022-07-23T07:16:20;101908.91;;;20.84;66.99
62420;BME280;48460;51.616;5.426;2022-07-23T07:18:46;101907.94;;;21.07;66.65
62420;BME280;48460;51.616;5.426;2022-07-23T07:21:11;101894.69;;;21.28;66.21
62420;BME280;48460;51.616;5.426;2022-07-23T07:23:37;101892.38;;;21.46;65.14
62420;BME280;48460;51.616;5.426;2022-07-23T07:26:02;101890.84;;;21.65;64.47
62420;BME280;48460;51.616;5.426;2022-07-23T07:28:30;101899.03;;;21.95;63.21
62420;BME280;48460;51.616;5.426;2022-07-23T07:30:55;101895.19;;;22.09;61.74
62420;BME280;48460;51.616;5.426;2022-07-23T07:33:21;101903.41;;;22.28;62.08
62420;BME280;48460;51.616;5.426;2022-07-23T07:35:50;101909.75;;;22.48;59.22
62420;BME280;48460;51.616;5.426;2022-07-23T07:38:15;101913.22;;;22.39;58.86
62420;BME280;48460;51.616;5.426;2022-07-23T07:40:41;101919.81;;;22.56;59.30
62420;BME280;48460;51.616;5.426;2022-07-23T07:43:06;101911.97;;;22.64;58.49
62420;BME280;48460;51.616;5.426;2022-07-23T07:45:32;101917.69;;;22.81;57.97
62420;BME280;48460;51.616;5.426;2022-07-23T07:47:57;101913.34;;;22.59;57.83
62420;BME280;48460;51.616;5.426;2022-07-23T07:50:23;101907.31;;;22.66;57.94
62420;BME280;48460;51.616;5.426;2022-07-23T07:52:49;101907.25;;;22.57;57.11
62420;BME280;48460;51.616;5.426;2022-07-23T07:55:14;101910.03;;;21.92;56.92
62420;BME280;48460;51.616;5.426;2022-07-23T07:57:40;101906.03;;;21.87;58.06
62420;BME280;48460;51.616;5.426;2022-07-23T08:00:07;101902.88;;;21.70;58.30
62420;BME280;48460;51.616;5.426;2022-07-23T08:03:00;101909.13;;;21.92;60.11
62420;BME280;48460;51.616;5.426;2022-07-23T08:05:28;101914.25;;;22.27;57.82
62420;BME280;48460;51.616;5.426;2022-07-23T08:07:55;101931.91;;;22.71;56.24
62420;BME280;48460;51.616;5.426;2022-07-23T08:10:21;101922.03;;;23.24;55.51
62420;BME280;48460;51.616;5.426;2022-07-23T08:12:48;101923.34;;;23.49;54.22
62420;BME280;48460;51.616;5.426;2022-07-23T08:15:15;101920.31;;;23.73;53.36
62420;BME280;48460;51.616;5.426;2022-07-23T08:17:43;101919.84;;;23.58;52.81
62420;BME280;48460;51.616;5.426;2022-07-23T08:20:09;101923.16;;;23.71;52.53
62420;BME280;48460;51.616;5.426;2022-07-23T08:23:07;101928.25;;;24.03;54.24
62420;BME280;48460;51.616;5.426;2022-07-23T08:25:38;101933.50;;;24.15;52.44
62420;BME280;48460;51.616;5.426;2022-07-23T08:28:06;101926.84;;;24.38;51.19
62420;BME280;48460;51.616;5.426;2022-07-23T08:30:33;101937.03;;;24.64;50.18
62420;BME280;48460;51.616;5.426;2022-07-23T08:33:06;101941.56;;;24.34;49.32
62420;BME280;48460;51.616;5.426;2022-07-23T08:35:46;101944.22;;;24.73;49.40
62420;BME280;48460;51.616;5.426;2022-07-23T08:38:14;101937.25;;;24.90;48.44
62420;BME280;48460;51.616;5.426;2022-07-23T08:40:43;101948.13;;;24.88;47.62
62420;BME280;48460;51.616;5.426;2022-07-23T08:43:13;101951.75;;;24.30;50.48
62420;BME280;48460;51.616;5.426;2022-07-23T08:45:42;101949.75;;;23.94;50.84
62420;BME280;48460;51.616;5.426;2022-07-23T08:48:12;101953.44;;;23.83;53.29
62420;BME280;48460;51.616;5.426;2022-07-23T08:50:42;101948.47;;;23.88;50.90
62420;BME280;48460;51.616;5.426;2022-07-23T08:53:08;101956.56;;;24.17;52.21
62420;BME280;48460;51.616;5.426;2022-07-23T08:55:34;101962.72;;;23.69;50.45
62420;BME280;48460;51.616;5.426;2022-07-23T08:58:00;101952.88;;;23.99;51.97
62420;BME280;48460;51.616;5.426;2022-07-23T09:00:26;101947.94;;;24.52;50.84
62420;BME280;48460;51.616;5.426;2022-07-23T09:02:52;101949.09;;;24.97;48.52
62420;BME280;48460;51.616;5.426;2022-07-23T09:05:18;101945.75;;;24.85;48.36
62420;BME280;48460;51.616;5.426;2022-07-23T09:08:18;101943.75;;;24.87;49.64
62420;BME280;48460;51.616;5.426;2022-07-23T09:10:54;101936.00;;;25.21;49.13
62420;BME280;48460;51.616;5.426;2022-07-23T09:18:47;101935.34;;;26.36;46.00
62420;BME280;48460;51.616;5.426;2022-07-23T09:21:18;101937.50;;;26.77;45.64
62420;BME280;48460;51.616;5.426;2022-07-23T09:24:02;101928.06;;;27.07;44.72
62420;BME280;48460;51.616;5.426;2022-07-23T09:26:29;101930.25;;;27.38;42.43
62420;BME280;48460;51.616;5.426;2022-07-23T09:31:49;101931.38;;;27.27;41.92
62420;BME280;48460;51.616;5.426;2022-07-23T09:34:27;101933.56;;;27.74;42.80
62420;BME280;48460;51.616;5.426;2022-07-23T09:36:57;101929.56;;;28.27;41.10
62420;BME280;48460;51.616;5.426;2022-07-23T09:39:29;101929.72;;;28.58;40.22
62420;BME280;48460;51.616;5.426;2022-07-23T09:41:55;101931.44;;;28.43;39.71
62420;BME280;48460;51.616;5.426;2022-07-23T09:44:21;101934.75;;;28.86;39.37
62420;BME280;48460;51.616;5.426;2022-07-23T09:46:49;101933.19;;;29.08;38.76
62420;BME280;48460;51.616;5.426;2022-07-23T09:49:24;101944.09;;;29.31;39.14
62420;BME280;48460;51.616;5.426;2022-07-23T09:51:53;101935.25;;;28.90;38.52
62420;BME280;48460;51.616;5.426;2022-07-23T09:54:27;101946.84;;;28.51;40.06
62420;BME280;48460;51.616;5.426;2022-07-23T09:56:54;101936.50;;;28.71;39.32
62420;BME280;48460;51.616;5.426;2022-07-23T09:59:27;101939.84;;;28.81;38.82
62420;BME280;48460;51.616;5.426;2022-07-23T10:01:55;101936.91;;;28.99;39.98
62420;BME280;48460;51.616;5.426;2022-07-23T10:04:23;101936.31;;;29.28;38.98
62420;BME280;48460;51.616;5.426;2022-07-23T10:06:59;101941.72;;;29.36;39.15
62420;BME280;48460;51.616;5.426;2022-07-23T10:09:28;101939.16;;;28.79;37.55
62420;BME280;48460;51.616;5.426;2022-07-23T10:11:58;101939.63;;;29.07;38.29
62420;BME280;48460;51.616;5.426;2022-07-23T10:14:27;101937.56;;;29.17;37.01
62420;BME280;48460;51.616;5.426;2022-07-23T10:16:56;101941.03;;;29.34;37.53
62420;BME280;48460;51.616;5.426;2022-07-23T10:19:22;101940.22;;;29.57;36.75
62420;BME280;48460;51.616;5.426;2022-07-23T10:21:52;101934.13;;;29.23;37.55
62420;BME280;48460;51.616;5.426;2022-07-23T10:24:28;101930.84;;;29.75;35.57
62420;BME280;48460;51.616;5.426;2022-07-23T10:27:04;101930.41;;;30.10;35.08
62420;BME280;48460;51.616;5.426;2022-07-23T10:35:44;101946.50;;;31.02;35.10
62420;BME280;48460;51.616;5.426;2022-07-23T10:38:30;101940.91;;;31.03;33.68
62420;BME280;48460;51.616;5.426;2022-07-23T10:41:01;101941.09;;;30.87;34.74
62420;BME280;48460;51.616;5.426;2022-07-23T10:43:29;101940.06;;;31.03;33.98
62420;BME280;48460;51.616;5.426;2022-07-23T10:45:55;101941.38;;;30.39;34.51
62420;BME280;48460;51.616;5.426;2022-07-23T10:48:23;101935.22;;;29.77;35.85
62420;BME280;48460;51.616;5.426;2022-07-23T10:51:08;101936.69;;;30.10;37.38
62420;BME280;48460;51.616;5.426;2022-07-23T10:56:50;101936.66;;;29.64;35.69
62420;BME280;48460;51.616;5.426;2022-07-23T10:59:28;101932.09;;;29.25;36.18
62420;BME280;48460;51.616;5.426;2022-07-23T11:02:23;101929.09;;;29.83;37.66
62420;BME280;48460;51.616;5.426;2022-07-23T11:04:52;101932.97;;;30.34;34.46
62420;BME280;48460;51.616;5.426;2022-07-23T11:07:18;101942.75;;;30.20;35.45
62420;BME280;48460;51.616;5.426;2022-07-23T11:09:44;101944.47;;;29.90;34.74
62420;BME280;48460;51.616;5.426;2022-07-23T11:17:31;101935.38;;;30.29;34.33
62420;BME280;48460;51.616;5.426;2022-07-23T11:27:47;101924.75;;;32.04;30.16
62420;BME280;48460;51.616;5.426;2022-07-23T11:33:16;101915.88;;;32.73;30.14
62420;BME280;48460;51.616;5.426;2022-07-23T11:35:44;101917.44;;;32.33;28.08
62420;BME280;48460;51.616;5.426;2022-07-23T11:38:18;101920.88;;;31.92;28.90
62420;BME280;48460;51.616;5.426;2022-07-23T11:40:48;101915.94;;;32.30;29.37
62420;BME280;48460;51.616;5.426;2022-07-23T11:43:14;101928.34;;;31.68;29.95
62420;BME280;48460;51.616;5.426;2022-07-23T11:45:45;101922.41;;;31.65;31.16
62420;BME280;48460;51.616;5.426;2022-07-23T11:50:42;101922.13;;;32.67;29.93
62420;BME280;48460;51.616;5.426;2022-07-23T11:53:07;101923.31;;;32.08;30.80
62420;BME280;48460;51.616;5.426;2022-07-23T11:55:33;101930.34;;;31.60;29.75
62420;BME280;48460;51.616;5.426;2022-07-23T11:57:59;101921.81;;;30.97;30.62
62420;BME280;48460;51.616;5.426;2022-07-23T12:00:29;101923.47;;;30.83;31.91
62420;BME280;48460;51.616;5.426;2022-07-23T12:02:58;101921.56;;;30.69;31.63
62420;BME280;48460;51.616;5.426;2022-07-23T12:05:30;101914.38;;;30.23;33.40
62420;BME280;48460;51.616;5.426;2022-07-23T12:07:57;101918.47;;;30.72;35.00
62420;BME280;48460;51.616;5.426;2022-07-23T12:10:34;101913.91;;;30.87;34.05
62420;BME280;48460;51.616;5.426;2022-07-23T12:13:05;101921.50;;;31.94;32.62
62420;BME280;48460;51.616;5.426;2022-07-23T12:15:35;101915.75;;;32.60;28.98
62420;BME280;48460;51.616;5.426;2022-07-23T12:18:04;101910.31;;;32.60;29.46
62420;BME280;48460;51.616;5.426;2022-07-23T12:20:32;101917.59;;;31.82;29.83
62420;BME280;48460;51.616;5.426;2022-07-23T12:23:00;101911.69;;;31.57;29.88
62420;BME280;48460;51.616;5.426;2022-07-23T12:25:31;101902.63;;;31.35;30.57
62420;BME280;48460;51.616;5.426;2022-07-23T12:30:51;101899.78;;;32.00;31.34
62420;BME280;48460;51.616;5.426;2022-07-23T12:35:55;101903.38;;;31.65;30.45
62420;BME280;48460;51.616;5.426;2022-07-23T12:38:37;101901.34;;;32.38;30.95
62420;BME280;48460;51.616;5.426;2022-07-23T12:41:03;101889.56;;;32.03;29.05
62420;BME280;48460;51.616;5.426;2022-07-23T12:43:41;101887.72;;;31.45;29.97
62420;BME280;48460;51.616;5.426;2022-07-23T12:46:12;101882.94;;;32.40;29.60
62420;BME280;48460;51.616;5.426;2022-07-23T12:48:51;101881.34;;;32.87;29.29
62420;BME280;48460;51.616;5.426;2022-07-23T12:51:21;101884.44;;;32.77;27.78
62420;BME280;48460;51.616;5.426;2022-07-23T12:56:30;101884.13;;;32.94;27.17
62420;BME280;48460;51.616;5.426;2022-07-23T12:58:56;101878.44;;;32.95;27.33
62420;BME280;48460;51.616;5.426;2022-07-23T13:01:37;101874.88;;;32.53;29.18
62420;BME280;48460;51.616;5.426;2022-07-23T13:04:04;101883.19;;;33.15;27.15
62420;BME280;48460;51.616;5.426;2022-07-23T13:06:52;101874.03;;;33.42;27.51
62420;BME280;48460;51.616;5.426;2022-07-23T13:09:19;101884.16;;;33.00;28.32
62420;BME280;48460;51.616;5.426;2022-07-23T13:11:46;101883.72;;;33.51;27.64
62420;BME280;48460;51.616;5.426;2022-07-23T13:14:13;101880.22;;;33.97;26.67
62420;BME280;48460;51.616;5.426;2022-07-23T13:16:39;101879.78;;;34.47;26.48
62420;BME280;48460;51.616;5.426;2022-07-23T13:19:08;101882.69;;;34.72;25.72
62420;BME280;48460;51.616;5.426;2022-07-23T13:21:34;101881.19;;;35.34;25.55
62420;BME280;48460;51.616;5.426;2022-07-23T13:24:01;101884.09;;;35.39;25.64
62420;BME280;48460;51.616;5.426;2022-07-23T13:26:27;101878.25;;;34.78;27.42
62420;BME280;48460;51.616;5.426;2022-07-23T13:28:53;101874.78;;;34.31;25.88
62420;BME280;48460;51.616;5.426;2022-07-23T13:31:19;101878.00;;;33.40;28.69
62420;BME280;48460;51.616;5.426;2022-07-23T13:33:44;101872.44;;;33.00;28.83